sensor_id;sensor_type;location;lat;lon;timestamp;P1;durP1;ratioP1;P2;durP2;ratioP2
16965;SDS011;8599;47.852;12.070;2023-06-26T00:01:57;7.77;;;5.73;;
16965;SDS011;8599;47.852;12.070;2023-06-26T00:04:24;7.70;;;6.50;;
16965;SDS011;8599;47.852;12.070;2023-06-26T00:06:51;11.63;;;6.60;;
16965;SDS011;8599;47.852;12.070;2023-06-26T00:09:17;8.87;;;5.77;;
16965;SDS011;8599;47.852;12.070;2023-06-26T00:11:44;9.27;;;5.37;;
16965;SDS011;8599;47.852;12.070;2023-06-26T00:14:12;8.07;;;5.87;;
16965;SDS011;8599;47.852;12.070;2023-06-26T00:16:39;9.10;;;6.10;;
16965;SDS011;8599;47.852;12.070;2023-06-26T00:19:07;8.17;;;5.97;;
16965;SDS011;8599;47.852;12.070;2023-06-26T00:21:34;11.47;;;6.27;;
16965;SDS011;8599;47.852;12.070;2023-06-26T00:24:01;9.70;;;6.30;;
16965;SDS011;8599;47.852;12.070;2023-06-26T00:26:28;11.43;;;5.83;;
16965;SDS011;8599;47.852;12.070;2023-06-26T00:28:54;11.23;;;6.33;;
16965;SDS011;8599;47.852;12.070;2023-06-26T00:31:22;11.03;;;6.37;;
16965;SDS011;8599;47.852;12.070;2023-06-26T00:33:49;11.97;;;6.33;;
16965;SDS011;8599;47.852;12.070;2023-06-26T00:36:16;9.80;;;6.37;;
16965;SDS011;8599;47.852;12.070;2023-06-26T00:38:43;11.33;;;6.07;;
16965;SDS011;8599;47.852;12.070;2023-06-26T00:41:09;9.17;;;5.37;;
16965;SDS011;8599;47.852;12.070;2023-06-26T00:43:37;17.53;;;6.30;;
16965;SDS011;8599;47.852;12.070;2023-06-26T00:46:05;9.30;;;6.20;;
16965;SDS011;8599;47.852;12.070;2023-06-26T00:48:37;10.27;;;5.87;;
16965;SDS011;8599;47.852;12.070;2023-06-26T00:51:05;9.47;;;6.17;;
16965;SDS011;8599;47.852;12.070;2023-06-26T00:53:32;10.57;;;6.10;;
16965;SDS011;8599;47.852;12.070;2023-06-26T00:55:59;11.40;;;6.23;;
16965;SDS011;8599;47.852;12.070;2023-06-26T00:58:27;7.97;;;6.00;;
16965;SDS011;8599;47.852;12.070;2023-06-26T01:00:54;9.17;;;6.03;;
16965;SDS011;8599;47.852;12.070;2023-06-26T01:03:21;8.83;;;6.57;;
16965;SDS011;8599;47.852;12.070;2023-06-26T01:05:51;10.07;;;6.40;;
16965;SDS011;8599;47.852;12.070;2023-06-26T01:08:21;11.07;;;7.07;;
16965;SDS011;8599;47.852;12.070;2023-06-26T01:10:49;9.87;;;6.20;;
16965;SDS011;8599;47.852;12.070;2023-06-26T01:13:16;11.17;;;6.57;;
16965;SDS011;8599;47.852;12.070;2023-06-26T01:15:44;10.97;;;6.33;;
16965;SDS011;8599;47.852;12.070;2023-06-26T01:18:12;8.50;;;5.90;;
16965;SDS011;8599;47.852;12.070;2023-06-26T01:20:40;8.93;;;5.90;;
16965;SDS011;8599;47.852;12.070;2023-06-26T01:23:12;8.33;;;5.47;;
16965;SDS011;8599;47.852;12.070;2023-06-26T01:25:47;10.33;;;6.50;;
16965;SDS011;8599;47.852;12.070;2023-06-26T01:28:23;8.60;;;5.77;;
16965;SDS011;8599;47.852;12.070;2023-06-26T01:30:51;9.47;;;5.90;;
16965;SDS011;8599;47.852;12.070;2023-06-26T01:33:19;12.70;;;6.00;;
16965;SDS011;8599;47.852;12.070;2023-06-26T01:35:46;9.30;;;5.53;;
16965;SDS011;8599;47.852;12.070;2023-06-26T01:38:14;8.50;;;5.77;;
16965;SDS011;8599;47.852;12.070;2023-06-26T01:40:43;17.43;;;7.27;;
16965;SDS011;8599;47.852;12.070;2023-06-26T01:43:11;8.67;;;5.63;;
16965;SDS011;8599;47.852;12.070;2023-06-26T01:45:44;8.53;;;5.57;;
16965;SDS011;8599;47.852;12.070;2023-06-26T01:48:14;7.33;;;5.30;;
16965;SDS011;8599;47.852;12.070;2023-06-26T01:50:46;10.77;;;6.23;;
16965;SDS011;8599;47.852;12.070;2023-06-26T01:53:15;15.57;;;6.37;;
16965;SDS011;8599;47.852;12.070;2023-06-26T01:55:45;8.10;;;6.10;;
16965;SDS011;8599;47.852;12.070;2023-06-26T01:58:17;9.77;;;6.50;;
16965;SDS011;8599;47.852;12.070;2023-06-26T02:00:47;10.90;;;5.87;;
16965;SDS011;8599;47.852;12.070;2023-06-26T02:03:14;14.50;;;6.33;;
16965;SDS011;8599;47.852;12.070;2023-06-26T02:05:41;9.43;;;5.97;;
16965;SDS011;8599;47.852;12.070;2023-06-26T02:08:08;9.00;;;5.63;;
16965;SDS011;8599;47.852;12.070;2023-06-26T02:10:35;8.23;;;5.93;;
16965;SDS011;8599;47.852;12.070;2023-06-26T02:13:02;8.53;;;5.63;;
16965;SDS011;8599;47.852;12.070;2023-06-26T02:15:29;8.73;;;6.00;;
16965;SDS011;8599;47.852;12.070;2023-06-26T02:17:57;8.20;;;5.90;;
16965;SDS011;8599;47.852;12.070;2023-06-26T02:20:24;8.73;;;5.43;;
16965;SDS011;8599;47.852;12.070;2023-06-26T02:22:51;8.90;;;5.40;;
16965;SDS011;8599;47.852;12.070;2023-06-26T02:25:18;8.70;;;5.97;;
16965;SDS011;8599;47.852;12.070;2023-06-26T02:27:45;15.43;;;5.70;;
16965;SDS011;8599;47.852;12.070;2023-06-26T02:30:11;7.73;;;5.83;;
16965;SDS011;8599;47.852;12.070;2023-06-26T02:32:38;8.70;;;5.80;;
16965;SDS011;8599;47.852;12.070;2023-06-26T02:35:07;9.03;;;6.13;;
16965;SDS011;8599;47.852;12.070;2023-06-26T02:37:34;7.87;;;5.50;;
16965;SDS011;8599;47.852;12.070;2023-06-26T02:40:01;7.93;;;5.77;;
16965;SDS011;8599;47.852;12.070;2023-06-26T02:42:30;8.67;;;5.90;;
16965;SDS011;8599;47.852;12.070;2023-06-26T02:44:57;15.13;;;6.30;;
16965;SDS011;8599;47.852;12.070;2023-06-26T02:47:24;10.57;;;6.10;;
16965;SDS011;8599;47.852;12.070;2023-06-26T02:49:51;7.43;;;5.43;;
16965;SDS011;8599;47.852;12.070;2023-06-26T02:52:19;9.13;;;6.30;;
16965;SDS011;8599;47.852;12.070;2023-06-26T02:54:46;7.93;;;5.83;;
16965;SDS011;8599;47.852;12.070;2023-06-26T02:57:13;10.53;;;5.90;;
16965;SDS011;8599;47.852;12.070;2023-06-26T02:59:39;8.30;;;5.23;;
16965;SDS011;8599;47.852;12.070;2023-06-26T03:02:06;7.87;;;5.50;;
16965;SDS011;8599;47.852;12.070;2023-06-26T03:04:33;10.47;;;6.03;;
16965;SDS011;8599;47.852;12.070;2023-06-26T03:07:01;8.70;;;5.63;;
16965;SDS011;8599;47.852;12.070;2023-06-26T03:09:29;9.70;;;5.83;;
16965;SDS011;8599;47.852;12.070;2023-06-26T03:11:56;11.90;;;6.30;;
16965;SDS011;8599;47.852;12.070;2023-06-26T03:14:23;11.57;;;6.77;;
16965;SDS011;8599;47.852;12.070;2023-06-26T03:16:50;15.27;;;5.43;;
16965;SDS011;8599;47.852;12.070;2023-06-26T03:19:17;8.17;;;5.93;;
16965;SDS011;8599;47.852;12.070;2023-06-26T03:21:44;11.30;;;6.20;;
16965;SDS011;8599;47.852;12.070;2023-06-26T03:24:11;9.37;;;5.73;;
16965;SDS011;8599;47.852;12.070;2023-06-26T03:26:39;13.33;;;6.30;;
16965;SDS011;8599;47.852;12.070;2023-06-26T03:29:06;8.80;;;5.63;;
16965;SDS011;8599;47.852;12.070;2023-06-26T03:31:33;8.63;;;6.30;;
16965;SDS011;8599;47.852;12.070;2023-06-26T03:34:00;11.13;;;5.60;;
16965;SDS011;8599;47.852;12.070;2023-06-26T03:36:26;8.47;;;5.90;;
16965;SDS011;8599;47.852;12.070;2023-06-26T03:38:53;16.47;;;5.67;;
16965;SDS011;8599;47.852;12.070;2023-06-26T03:41:22;7.33;;;5.60;;
16965;SDS011;8599;47.852;12.070;2023-06-26T03:43:50;9.83;;;6.03;;
16965;SDS011;8599;47.852;12.070;2023-06-26T03:46:17;9.83;;;5.97;;
16965;SDS011;8599;47.852;12.070;2023-06-26T03:48:43;8.77;;;5.77;;
16965;SDS011;8599;47.852;12.070;2023-06-26T03:51:10;9.77;;;6.10;;
16965;SDS011;8599;47.852;12.070;2023-06-26T03:53:37;7.80;;;5.87;;
16965;SDS011;8599;47.852;12.070;2023-06-26T03:56:04;11.70;;;5.90;;
16965;SDS011;8599;47.852;12.070;2023-06-26T03:58:31;12.03;;;5.50;;
16965;SDS011;8599;47.852;12.070;2023-06-26T04:00:59;10.50;;;6.00;;
16965;SDS011;8599;47.852;12.070;2023-06-26T04:03:26;7.40;;;5.33;;
16965;SDS011;8599;47.852;12.070;2023-06-26T04:05:53;9.57;;;5.93;;
16965;SDS011;8599;47.852;12.070;2023-06-26T04:08:20;8.83;;;5.27;;
16965;SDS011;8599;47.852;12.070;2023-06-26T04:10:46;11.23;;;5.77;;
16965;SDS011;8599;47.852;12.070;2023-06-26T04:13:13;11.80;;;6.43;;
16965;SDS011;8599;47.852;12.070;2023-06-26T04:15:40;10.70;;;5.73;;
16965;SDS011;8599;47.852;12.070;2023-06-26T04:18:08;7.43;;;5.50;;
16965;SDS011;8599;47.852;12.070;2023-06-26T04:20:38;9.53;;;6.03;;
16965;SDS011;8599;47.852;12.070;2023-06-26T04:23:07;10.43;;;6.27;;
16965;SDS011;8599;47.852;12.070;2023-06-26T04:25:33;14.13;;;6.03;;
16965;SDS011;8599;47.852;12.070;2023-06-26T04:28:02;12.70;;;5.87;;
16965;SDS011;8599;47.852;12.070;2023-06-26T04:30:29;8.47;;;5.60;;
16965;SDS011;8599;47.852;12.070;2023-06-26T04:32:56;15.37;;;6.00;;
16965;SDS011;8599;47.852;12.070;2023-06-26T04:35:25;11.97;;;6.60;;
16965;SDS011;8599;47.852;12.070;2023-06-26T04:37:52;10.13;;;5.60;;
16965;SDS011;8599;47.852;12.070;2023-06-26T04:40:18;8.10;;;5.30;;
16965;SDS011;8599;47.852;12.070;2023-06-26T04:42:45;8.97;;;5.63;;
16965;SDS011;8599;47.852;12.070;2023-06-26T04:45:12;10.43;;;6.27;;
16965;SDS011;8599;47.852;12.070;2023-06-26T04:47:39;11.70;;;6.13;;
16965;SDS011;8599;47.852;12.070;2023-06-26T04:50:06;7.77;;;5.40;;
16965;SDS011;8599;47.852;12.070;2023-06-26T04:52:35;12.27;;;6.33;;
16965;SDS011;8599;47.852;12.070;2023-06-26T04:55:02;7.27;;;5.83;;
16965;SDS011;8599;47.852;12.070;2023-06-26T04:57:29;8.97;;;5.77;;
16965;SDS011;8599;47.852;12.070;2023-06-26T04:59:56;9.03;;;5.90;;
16965;SDS011;8599;47.852;12.070;2023-06-26T05:02:23;8.65;;;5.63;;
16965;SDS011;8599;47.852;12.070;2023-06-26T05:04:51;10.37;;;6.27;;
16965;SDS011;8599;47.852;12.070;2023-06-26T05:07:18;10.65;;;6.05;;
16965;SDS011;8599;47.852;12.070;2023-06-26T05:09:46;12.15;;;5.55;;
16965;SDS011;8599;47.852;12.070;2023-06-26T05:12:13;20.55;;;8.00;;
16965;SDS011;8599;47.852;12.070;2023-06-26T05:14:40;10.98;;;6.53;;
16965;SDS011;8599;47.852;12.070;2023-06-26T05:17:07;11.23;;;5.78;;
16965;SDS011;8599;47.852;12.070;2023-06-26T05:19:34;11.90;;;6.45;;
16965;SDS011;8599;47.852;12.070;2023-06-26T05:22:01;7.95;;;5.57;;
16965;SDS011;8599;47.852;12.070;2023-06-26T05:24:32;10.00;;;5.82;;
16965;SDS011;8599;47.852;12.070;2023-06-26T05:27:01;9.90;;;5.70;;
16965;SDS011;8599;47.852;12.070;2023-06-26T05:29:29;9.93;;;6.32;;
16965;SDS011;8599;47.852;12.070;2023-06-26T05:31:57;12.35;;;6.60;;
16965;SDS011;8599;47.852;12.070;2023-06-26T05:34:25;9.98;;;6.18;;
16965;SDS011;8599;47.852;12.070;2023-06-26T05:36:54;12.38;;;6.10;;
16965;SDS011;8599;47.852;12.070;2023-06-26T05:39:24;15.23;;;6.63;;
16965;SDS011;8599;47.852;12.070;2023-06-26T05:41:51;10.25;;;6.82;;
16965;SDS011;8599;47.852;12.070;2023-06-26T05:44:20;10.35;;;5.82;;
16965;SDS011;8599;47.852;12.070;2023-06-26T05:46:47;11.20;;;7.28;;
16965;SDS011;8599;47.852;12.070;2023-06-26T05:49:14;10.15;;;5.85;;
16965;SDS011;8599;47.852;12.070;2023-06-26T05:51:41;11.25;;;7.32;;
16965;SDS011;8599;47.852;12.070;2023-06-26T05:54:08;10.63;;;6.40;;
16965;SDS011;8599;47.852;12.070;2023-06-26T05:56:36;11.18;;;6.70;;
16965;SDS011;8599;47.852;12.070;2023-06-26T05:59:04;10.50;;;5.72;;
16965;SDS011;8599;47.852;12.070;2023-06-26T06:01:33;12.57;;;6.90;;
16965;SDS011;8599;47.852;12.070;2023-06-26T06:04:00;11.57;;;6.65;;
16965;SDS011;8599;47.852;12.070;2023-06-26T06:06:27;8.93;;;5.90;;
16965;SDS011;8599;47.852;12.070;2023-06-26T06:08:54;8.43;;;5.78;;
16965;SDS011;8599;47.852;12.070;2023-06-26T06:11:21;9.88;;;6.00;;
16965;SDS011;8599;47.852;12.070;2023-06-26T06:13:48;9.65;;;6.47;;
16965;SDS011;8599;47.852;12.070;2023-06-26T06:16:15;9.25;;;6.32;;
16965;SDS011;8599;47.852;12.070;2023-06-26T06:18:43;8.30;;;6.00;;
16965;SDS011;8599;47.852;12.070;2023-06-26T06:21:10;9.68;;;6.07;;
16965;SDS011;8599;47.852;12.070;2023-06-26T06:23:37;12.15;;;6.07;;
16965;SDS011;8599;47.852;12.070;2023-06-26T06:26:04;12.82;;;6.28;;
16965;SDS011;8599;47.852;12.070;2023-06-26T06:28:31;9.32;;;6.18;;
16965;SDS011;8599;47.852;12.070;2023-06-26T06:30:58;12.45;;;6.47;;
16965;SDS011;8599;47.852;12.070;2023-06-26T06:33:24;8.63;;;5.72;;
16965;SDS011;8599;47.852;12.070;2023-06-26T06:35:53;9.15;;;5.82;;
16965;SDS011;8599;47.852;12.070;2023-06-26T06:38:19;11.75;;;5.57;;
16965;SDS011;8599;47.852;12.070;2023-06-26T06:40:46;10.57;;;6.18;;
16965;SDS011;8599;47.852;12.070;2023-06-26T06:43:13;12.57;;;5.82;;
16965;SDS011;8599;47.852;12.070;2023-06-26T06:45:40;8.35;;;5.75;;
16965;SDS011;8599;47.852;12.070;2023-06-26T06:48:07;9.02;;;6.03;;
16965;SDS011;8599;47.852;12.070;2023-06-26T06:50:34;11.65;;;6.13;;
16965;SDS011;8599;47.852;12.070;2023-06-26T06:53:02;8.25;;;5.90;;
16965;SDS011;8599;47.852;12.070;2023-06-26T06:55:29;13.85;;;6.50;;
16965;SDS011;8599;47.852;12.070;2023-06-26T06:57:56;8.82;;;5.88;;
16965;SDS011;8599;47.852;12.070;2023-06-26T07:00:23;11.20;;;6.20;;
16965;SDS011;8599;47.852;12.070;2023-06-26T07:02:50;11.63;;;6.35;;
16965;SDS011;8599;47.852;12.070;2023-06-26T07:05:17;8.60;;;5.55;;
16965;SDS011;8599;47.852;12.070;2023-06-26T07:07:44;9.25;;;5.80;;
16965;SDS011;8599;47.852;12.070;2023-06-26T07:10:13;11.45;;;5.95;;
16965;SDS011;8599;47.852;12.070;2023-06-26T07:12:40;9.48;;;5.97;;
16965;SDS011;8599;47.852;12.070;2023-06-26T07:15:07;9.60;;;5.63;;
16965;SDS011;8599;47.852;12.070;2023-06-26T07:17:34;8.32;;;5.82;;
16965;SDS011;8599;47.852;12.070;2023-06-26T07:20:03;11.70;;;5.95;;
16965;SDS011;8599;47.852;12.070;2023-06-26T07:22:31;9.82;;;6.55;;
16965;SDS011;8599;47.852;12.070;2023-06-26T07:24:58;7.90;;;5.63;;
16965;SDS011;8599;47.852;12.070;2023-06-26T07:27:27;8.65;;;5.38;;
16965;SDS011;8599;47.852;12.070;2023-06-26T07:29:54;11.43;;;6.70;;
16965;SDS011;8599;47.852;12.070;2023-06-26T07:32:21;10.55;;;6.28;;
16965;SDS011;8599;47.852;12.070;2023-06-26T07:34:47;11.20;;;6.97;;
16965;SDS011;8599;47.852;12.070;2023-06-26T07:37:14;10.18;;;5.72;;
16965;SDS011;8599;47.852;12.070;2023-06-26T07:39:41;8.57;;;6.20;;
16965;SDS011;8599;47.852;12.070;2023-06-26T07:42:08;12.32;;;6.32;;
16965;SDS011;8599;47.852;12.070;2023-06-26T07:44:37;7.32;;;5.40;;
16965;SDS011;8599;47.852;12.070;2023-06-26T07:47:03;7.47;;;5.15;;
16965;SDS011;8599;47.852;12.070;2023-06-26T07:49:30;10.50;;;6.18;;
16965;SDS011;8599;47.852;12.070;2023-06-26T07:51:57;8.00;;;5.45;;
16965;SDS011;8599;47.852;12.070;2023-06-26T07:54:24;10.90;;;5.63;;
16965;SDS011;8599;47.852;12.070;2023-06-26T07:56:52;8.85;;;6.00;;
16965;SDS011;8599;47.852;12.070;2023-06-26T07:59:20;10.70;;;5.63;;
16965;SDS011;8599;47.852;12.070;2023-06-26T08:01:49;8.68;;;5.85;;
16965;SDS011;8599;47.852;12.070;2023-06-26T08:04:17;8.43;;;5.93;;
16965;SDS011;8599;47.852;12.070;2023-06-26T08:06:45;7.55;;;5.55;;
16965;SDS011;8599;47.852;12.070;2023-06-26T08:09:12;7.75;;;5.60;;
16965;SDS011;8599;47.852;12.070;2023-06-26T08:11:39;14.60;;;7.22;;
16965;SDS011;8599;47.852;12.070;2023-06-26T08:14:05;9.35;;;5.60;;
16965;SDS011;8599;47.852;12.070;2023-06-26T08:16:32;6.72;;;5.20;;
16965;SDS011;8599;47.852;12.070;2023-06-26T08:19:01;8.45;;;5.22;;
16965;SDS011;8599;47.852;12.070;2023-06-26T08:21:28;7.88;;;5.35;;
16965;SDS011;8599;47.852;12.070;2023-06-26T08:23:55;9.13;;;6.03;;
16965;SDS011;8599;47.852;12.070;2023-06-26T08:26:21;9.30;;;5.50;;
16965;SDS011;8599;47.852;12.070;2023-06-26T08:28:48;9.70;;;5.57;;
16965;SDS011;8599;47.852;12.070;2023-06-26T08:31:15;14.80;;;5.65;;
16965;SDS011;8599;47.852;12.070;2023-06-26T08:33:46;9.05;;;5.63;;
16965;SDS011;8599;47.852;12.070;2023-06-26T08:36:14;10.60;;;6.18;;
16965;SDS011;8599;47.852;12.070;2023-06-26T08:38:41;8.98;;;5.90;;
16965;SDS011;8599;47.852;12.070;2023-06-26T08:41:09;6.72;;;5.10;;
16965;SDS011;8599;47.852;12.070;2023-06-26T08:43:36;8.27;;;5.57;;
16965;SDS011;8599;47.852;12.070;2023-06-26T08:46:02;7.82;;;5.25;;
16965;SDS011;8599;47.852;12.070;2023-06-26T08:48:29;6.65;;;5.60;;
16965;SDS011;8599;47.852;12.070;2023-06-26T08:50:58;9.15;;;5.50;;
16965;SDS011;8599;47.852;12.070;2023-06-26T08:53:33;8.77;;;5.60;;
16965;SDS011;8599;47.852;12.070;2023-06-26T08:56:09;7.03;;;5.35;;
16965;SDS011;8599;47.852;12.070;2023-06-26T08:58:38;7.78;;;4.72;;
16965;SDS011;8599;47.852;12.070;2023-06-26T09:01:05;7.57;;;5.07;;
16965;SDS011;8599;47.852;12.070;2023-06-26T09:03:32;8.15;;;5.30;;
16965;SDS011;8599;47.852;12.070;2023-06-26T09:05:59;9.52;;;5.80;;
16965;SDS011;8599;47.852;12.070;2023-06-26T09:08:26;12.32;;;5.38;;
16965;SDS011;8599;47.852;12.070;2023-06-26T09:10:54;9.82;;;5.28;;
16965;SDS011;8599;47.852;12.070;2023-06-26T09:13:21;10.85;;;5.57;;
16965;SDS011;8599;47.852;12.070;2023-06-26T09:15:48;7.28;;;4.97;;
16965;SDS011;8599;47.852;12.070;2023-06-26T09:18:16;7.18;;;5.20;;
16965;SDS011;8599;47.852;12.070;2023-06-26T09:20:43;7.10;;;4.82;;
16965;SDS011;8599;47.852;12.070;2023-06-26T09:23:10;7.38;;;4.25;;
16965;SDS011;8599;47.852;12.070;2023-06-26T09:25:38;10.93;;;5.35;;
16965;SDS011;8599;47.852;12.070;2023-06-26T09:28:07;7.63;;;4.95;;
16965;SDS011;8599;47.852;12.070;2023-06-26T09:30:34;5.75;;;5.03;;
16965;SDS011;8599;47.852;12.070;2023-06-26T09:33:12;7.60;;;4.72;;
16965;SDS011;8599;47.852;12.070;2023-06-26T09:35:40;7.53;;;4.57;;
16965;SDS011;8599;47.852;12.070;2023-06-26T09:38:07;5.15;;;4.20;;
16965;SDS011;8599;47.852;12.070;2023-06-26T09:40:33;8.20;;;5.30;;
16965;SDS011;8599;47.852;12.070;2023-06-26T09:43:03;8.27;;;4.85;;
16965;SDS011;8599;47.852;12.070;2023-06-26T09:45:32;6.95;;;4.80;;
16965;SDS011;8599;47.852;12.070;2023-06-26T09:48:01;7.20;;;4.45;;
16965;SDS011;8599;47.852;12.070;2023-06-26T09:50:29;5.95;;;4.28;;
16965;SDS011;8599;47.852;12.070;2023-06-26T09:52:59;6.80;;;4.68;;
16965;SDS011;8599;47.852;12.070;2023-06-26T09:55:34;5.72;;;4.25;;
16965;SDS011;8599;47.852;12.070;2023-06-26T09:58:01;5.53;;;4.57;;
16965;SDS011;8599;47.852;12.070;2023-06-26T10:00:29;6.05;;;4.25;;
16965;SDS011;8599;47.852;12.070;2023-06-26T10:02:58;4.47;;;3.90;;
16965;SDS011;8599;47.852;12.070;2023-06-26T10:05:26;5.38;;;4.60;;
16965;SDS011;8599;47.852;12.070;2023-06-26T10:07:54;10.18;;;4.25;;
16965;SDS011;8599;47.852;12.070;2023-06-26T10:10:22;5.10;;;4.40;;
16965;SDS011;8599;47.852;12.070;2023-06-26T10:12:50;8.18;;;4.45;;
16965;SDS011;8599;47.852;12.070;2023-06-26T10:15:21;4.57;;;4.00;;
16965;SDS011;8599;47.852;12.070;2023-06-26T10:17:52;6.18;;;4.45;;
16965;SDS011;8599;47.852;12.070;2023-06-26T10:20:21;6.60;;;4.00;;
16965;SDS011;8599;47.852;12.070;2023-06-26T10:22:49;4.20;;;3.67;;
16965;SDS011;8599;47.852;12.070;2023-06-26T10:25:16;4.55;;;3.70;;
16965;SDS011;8599;47.852;12.070;2023-06-26T10:27:46;6.55;;;4.22;;
16965;SDS011;8599;47.852;12.070;2023-06-26T10:30:18;6.32;;;4.38;;
16965;SDS011;8599;47.852;12.070;2023-06-26T10:32:48;6.60;;;3.53;;
16965;SDS011;8599;47.852;12.070;2023-06-26T10:35:18;6.20;;;4.15;;
16965;SDS011;8599;47.852;12.070;2023-06-26T10:37:46;5.57;;;3.80;;
16965;SDS011;8599;47.852;12.070;2023-06-26T10:40:17;3.88;;;3.17;;
16965;SDS011;8599;47.852;12.070;2023-06-26T10:42:48;3.38;;;3.05;;
16965;SDS011;8599;47.852;12.070;2023-06-26T10:45:15;4.82;;;3.53;;
16965;SDS011;8599;47.852;12.070;2023-06-26T10:47:45;4.07;;;3.55;;
16965;SDS011;8599;47.852;12.070;2023-06-26T10:50:18;6.32;;;3.90;;
16965;SDS011;8599;47.852;12.070;2023-06-26T10:53:08;5.45;;;3.75;;
16965;SDS011;8599;47.852;12.070;2023-06-26T10:55:36;5.47;;;4.10;;
16965;SDS011;8599;47.852;12.070;2023-06-26T10:58:03;5.72;;;3.78;;
16965;SDS011;8599;47.852;12.070;2023-06-26T11:00:30;4.32;;;3.78;;
16965;SDS011;8599;47.852;12.070;2023-06-26T11:02:57;4.88;;;3.80;;
16965;SDS011;8599;47.852;12.070;2023-06-26T11:05:28;6.13;;;3.70;;
16965;SDS011;8599;47.852;12.070;2023-06-26T11:08:05;9.52;;;3.55;;
16965;SDS011;8599;47.852;12.070;2023-06-26T11:10:49;5.20;;;3.88;;
16965;SDS011;8599;47.852;12.070;2023-06-26T11:13:17;4.55;;;3.40;;
16965;SDS011;8599;47.852;12.070;2023-06-26T11:15:45;5.28;;;3.35;;
16965;SDS011;8599;47.852;12.070;2023-06-26T11:18:12;3.33;;;3.03;;
16965;SDS011;8599;47.852;12.070;2023-06-26T11:20:41;4.97;;;3.45;;
16965;SDS011;8599;47.852;12.070;2023-06-26T11:23:08;6.60;;;3.35;;
16965;SDS011;8599;47.852;12.070;2023-06-26T11:25:35;5.47;;;3.35;;
16965;SDS011;8599;47.852;12.070;2023-06-26T11:28:02;3.88;;;3.17;;
16965;SDS011;8599;47.852;12.070;2023-06-26T11:30:30;18.98;;;4.85;;
16965;SDS011;8599;47.852;12.070;2023-06-26T11:33:04;9.48;;;3.45;;
16965;SDS011;8599;47.852;12.070;2023-06-26T11:35:32;18.10;;;4.80;;
16965;SDS011;8599;47.852;12.070;2023-06-26T11:38:02;6.85;;;3.97;;
16965;SDS011;8599;47.852;12.070;2023-06-26T11:40:30;7.57;;;3.60;;
16965;SDS011;8599;47.852;12.070;2023-06-26T11:42:58;4.70;;;3.38;;
16965;SDS011;8599;47.852;12.070;2023-06-26T11:45:27;5.22;;;3.53;;
16965;SDS011;8599;47.852;12.070;2023-06-26T11:47:55;7.65;;;3.55;;
16965;SDS011;8599;47.852;12.070;2023-06-26T11:50:23;3.50;;;3.17;;
16965;SDS011;8599;47.852;12.070;2023-06-26T11:52:54;6.43;;;3.50;;
16965;SDS011;8599;47.852;12.070;2023-06-26T11:55:23;5.90;;;3.85;;
16965;SDS011;8599;47.852;12.070;2023-06-26T11:57:52;5.93;;;3.58;;
16965;SDS011;8599;47.852;12.070;2023-06-26T12:00:23;4.25;;;3.05;;
16965;SDS011;8599;47.852;12.070;2023-06-26T12:02:50;4.18;;;3.20;;
16965;SDS011;8599;47.852;12.070;2023-06-26T12:05:17;3.80;;;3.40;;
16965;SDS011;8599;47.852;12.070;2023-06-26T12:07:46;4.00;;;3.35;;
16965;SDS011;8599;47.852;12.070;2023-06-26T12:10:13;3.47;;;3.13;;
16965;SDS011;8599;47.852;12.070;2023-06-26T12:12:42;4.07;;;3.47;;
16965;SDS011;8599;47.852;12.070;2023-06-26T12:15:12;3.60;;;3.30;;
16965;SDS011;8599;47.852;12.070;2023-06-26T12:17:40;4.97;;;3.47;;
16965;SDS011;8599;47.852;12.070;2023-06-26T12:20:16;3.38;;;3.05;;
16965;SDS011;8599;47.852;12.070;2023-06-26T12:22:45;4.10;;;3.30;;
16965;SDS011;8599;47.852;12.070;2023-06-26T12:25:12;4.80;;;3.35;;
16965;SDS011;8599;47.852;12.070;2023-06-26T12:27:39;3.53;;;3.22;;
16965;SDS011;8599;47.852;12.070;2023-06-26T12:30:08;3.42;;;3.13;;
16965;SDS011;8599;47.852;12.070;2023-06-26T12:32:35;3.38;;;3.08;;
16965;SDS011;8599;47.852;12.070;2023-06-26T12:35:02;5.50;;;2.97;;
16965;SDS011;8599;47.852;12.070;2023-06-26T12:37:29;6.10;;;3.60;;
16965;SDS011;8599;47.852;12.070;2023-06-26T12:40:03;4.72;;;3.40;;
16965;SDS011;8599;47.852;12.070;2023-06-26T12:42:33;8.65;;;3.72;;
16965;SDS011;8599;47.852;12.070;2023-06-26T12:45:09;5.10;;;3.83;;
16965;SDS011;8599;47.852;12.070;2023-06-26T12:47:38;3.63;;;3.17;;
16965;SDS011;8599;47.852;12.070;2023-06-26T12:50:06;3.70;;;3.40;;
16965;SDS011;8599;47.852;12.070;2023-06-26T12:52:34;3.47;;;3.17;;
16965;SDS011;8599;47.852;12.070;2023-06-26T12:55:01;5.03;;;4.03;;
16965;SDS011;8599;47.852;12.070;2023-06-26T12:57:28;5.30;;;3.65;;
16965;SDS011;8599;47.852;12.070;2023-06-26T12:59:55;4.95;;;3.38;;
16965;SDS011;8599;47.852;12.070;2023-06-26T13:02:23;5.95;;;3.90;;
16965;SDS011;8599;47.852;12.070;2023-06-26T13:04:50;4.05;;;3.63;;
16965;SDS011;8599;47.852;12.070;2023-06-26T13:07:16;6.10;;;4.45;;
16965;SDS011;8599;47.852;12.070;2023-06-26T13:09:43;3.70;;;3.15;;
16965;SDS011;8599;47.852;12.070;2023-06-26T13:12:11;5.15;;;3.42;;
16965;SDS011;8599;47.852;12.070;2023-06-26T13:14:37;6.35;;;3.90;;
16965;SDS011;8599;47.852;12.070;2023-06-26T13:17:04;108.13;;;13.70;;
16965;SDS011;8599;47.852;12.070;2023-06-26T13:19:33;4.05;;;3.47;;
16965;SDS011;8599;47.852;12.070;2023-06-26T13:21:59;4.60;;;3.80;;
16965;SDS011;8599;47.852;12.070;2023-06-26T13:24:26;4.75;;;4.25;;
16965;SDS011;8599;47.852;12.070;2023-06-26T13:26:53;4.63;;;3.60;;
16965;SDS011;8599;47.852;12.070;2023-06-26T13:29:20;3.85;;;3.53;;
16965;SDS011;8599;47.852;12.070;2023-06-26T13:31:47;4.53;;;3.35;;
16965;SDS011;8599;47.852;12.070;2023-06-26T13:34:21;9.85;;;4.50;;
16965;SDS011;8599;47.852;12.070;2023-06-26T13:36:50;4.53;;;3.60;;
16965;SDS011;8599;47.852;12.070;2023-06-26T13:39:17;6.15;;;4.13;;
16965;SDS011;8599;47.852;12.070;2023-06-26T13:41:43;4.13;;;3.60;;
16965;SDS011;8599;47.852;12.070;2023-06-26T13:44:10;4.40;;;4.00;;
16965;SDS011;8599;47.852;12.070;2023-06-26T13:46:37;7.75;;;4.28;;
16965;SDS011;8599;47.852;12.070;2023-06-26T13:49:04;5.45;;;4.20;;
16965;SDS011;8599;47.852;12.070;2023-06-26T13:51:31;7.45;;;4.03;;
16965;SDS011;8599;47.852;12.070;2023-06-26T13:53:59;5.95;;;3.90;;
16965;SDS011;8599;47.852;12.070;2023-06-26T13:56:26;4.25;;;3.85;;
16965;SDS011;8599;47.852;12.070;2023-06-26T13:58:55;6.28;;;4.25;;
16965;SDS011;8599;47.852;12.070;2023-06-26T14:01:23;5.70;;;4.03;;
16965;SDS011;8599;47.852;12.070;2023-06-26T14:03:50;6.47;;;4.00;;
16965;SDS011;8599;47.852;12.070;2023-06-26T14:06:17;7.45;;;5.78;;
16965;SDS011;8599;47.852;12.070;2023-06-26T14:08:43;6.22;;;4.38;;
16965;SDS011;8599;47.852;12.070;2023-06-26T14:11:11;4.68;;;4.03;;
16965;SDS011;8599;47.852;12.070;2023-06-26T14:13:40;4.85;;;4.25;;
16965;SDS011;8599;47.852;12.070;2023-06-26T14:16:07;4.10;;;3.70;;
16965;SDS011;8599;47.852;12.070;2023-06-26T14:18:34;6.25;;;4.15;;
16965;SDS011;8599;47.852;12.070;2023-06-26T14:21:01;6.00;;;4.30;;
16965;SDS011;8599;47.852;12.070;2023-06-26T14:23:29;7.07;;;4.05;;
16965;SDS011;8599;47.852;12.070;2023-06-26T14:25:55;9.13;;;4.45;;
16965;SDS011;8599;47.852;12.070;2023-06-26T14:28:23;5.68;;;3.75;;
16965;SDS011;8599;47.852;12.070;2023-06-26T14:30:50;5.28;;;4.75;;
16965;SDS011;8599;47.852;12.070;2023-06-26T14:33:17;5.40;;;4.10;;
16965;SDS011;8599;47.852;12.070;2023-06-26T14:35:44;5.95;;;4.10;;
16965;SDS011;8599;47.852;12.070;2023-06-26T14:38:11;4.93;;;4.43;;
16965;SDS011;8599;47.852;12.070;2023-06-26T14:40:38;5.90;;;4.50;;
16965;SDS011;8599;47.852;12.070;2023-06-26T14:43:04;10.15;;;4.88;;
16965;SDS011;8599;47.852;12.070;2023-06-26T14:45:32;5.68;;;4.35;;
16965;SDS011;8599;47.852;12.070;2023-06-26T14:47:59;5.30;;;4.57;;